createdAt,value
2019-05-21T00:01:15.173Z,89.37
2019-05-21T00:03:41.426Z,89.08
2019-05-21T00:06:07.652Z,88.31
2019-05-21T00:08:33.909Z,88.01
2019-05-21T00:11:00.150Z,88.23
2019-05-21T00:13:26.410Z,89.41
2019-05-21T00:15:52.656Z,89.83
2019-05-21T00:18:18.900Z,90.04
2019-05-21T00:20:45.140Z,89.43
2019-05-21T00:23:11.387Z,87.95
2019-05-21T00:25:37.653Z,89.41
2019-05-21T00:28:33.336Z,89.24
2019-05-21T00:31:36.925Z,88.36
2019-05-21T00:34:43.948Z,89.52
2019-05-21T00:37:45.571Z,89.94
2019-05-21T00:40:48.829Z,90.54
2019-05-21T00:43:15.674Z,89.31
2019-05-21T00:45:41.914Z,88.29
2019-05-21T00:48:08.154Z,88.18
2019-05-21T00:50:34.404Z,88.42
2019-05-21T00:53:00.635Z,88.10
2019-05-21T00:55:26.888Z,89.39
2019-05-21T00:57:53.117Z,90.32
2019-05-21T01:00:19.623Z,90.80
2019-05-21T01:02:45.886Z,91.12
2019-05-21T01:05:12.623Z,91.39
2019-05-21T01:07:39.071Z,90.19
2019-05-21T01:10:05.397Z,90.63
2019-05-21T01:12:31.642Z,91.40
2019-05-21T01:14:57.872Z,91.23
2019-05-21T01:17:24.136Z,91.83
2019-05-21T01:19:50.366Z,91.32
2019-05-21T01:22:16.615Z,90.45
2019-05-21T01:24:42.870Z,90.28
2019-05-21T01:27:09.114Z,89.66
2019-05-21T01:29:35.327Z,89.71
2019-05-21T01:32:01.580Z,90.50
2019-05-21T01:34:27.814Z,91.10
2019-05-21T01:36:54.052Z,91.13
2019-05-21T01:39:20.291Z,90.99
2019-05-21T01:41:46.548Z,91.11
2019-05-21T01:44:12.763Z,91.91
2019-05-21T01:46:39.003Z,90.83
2019-05-21T01:49:05.240Z,89.57
2019-05-21T01:51:31.486Z,91.67
2019-05-21T01:53:57.728Z,92.39
2019-05-21T01:56:23.961Z,93.29
2019-05-21T01:58:50.222Z,92.79
2019-05-21T02:01:16.448Z,92.60
2019-05-21T02:03:42.718Z,92.12
2019-05-21T02:06:09.038Z,93.13
2019-05-21T02:08:35.281Z,93.74
2019-05-21T02:11:01.512Z,93.79
2019-05-21T02:13:27.755Z,92.76
2019-05-21T02:15:53.987Z,91.98
2019-05-21T02:18:20.249Z,91.76
2019-05-21T02:20:46.499Z,92.22
2019-05-21T02:23:12.740Z,91.80
2019-05-21T02:25:39.972Z,92.57
2019-05-21T02:28:06.226Z,91.97
2019-05-21T02:30:32.457Z,92.21
2019-05-21T02:32:58.718Z,92.10
2019-05-21T02:35:24.953Z,92.17
2019-05-21T02:37:51.229Z,92.15
2019-05-21T02:40:17.643Z,91.65
2019-05-21T02:42:43.883Z,91.54
2019-05-21T02:45:10.628Z,92.37
2019-05-21T02:47:36.857Z,93.03
2019-05-21T02:50:07.301Z,92.76
2019-05-21T02:52:33.537Z,92.68
2019-05-21T02:54:59.771Z,92.21
2019-05-21T02:57:44.195Z,91.93
2019-05-21T03:00:28.822Z,92.25
2019-05-21T03:02:55.057Z,92.20
2019-05-21T03:05:21.292Z,92.82
2019-05-21T03:07:47.542Z,93.13
2019-05-21T03:10:13.787Z,93.19
2019-05-21T03:12:40.016Z,92.95
2019-05-21T03:15:06.360Z,93.02
2019-05-21T03:17:32.608Z,92.59
2019-05-21T03:19:58.844Z,92.58
2019-05-21T03:22:25.075Z,93.40
2019-05-21T03:24:51.321Z,94.07
2019-05-21T03:27:17.549Z,94.97
2019-05-21T03:29:43.776Z,94.72
2019-05-21T03:32:10.017Z,94.66
2019-05-21T03:34:36.258Z,94.31
2019-05-21T03:37:02.597Z,93.92
2019-05-21T03:39:28.826Z,93.56
2019-05-21T03:41:55.110Z,92.94
2019-05-21T03:44:21.296Z,92.30
2019-05-21T03:46:47.573Z,92.32
2019-05-21T03:49:13.779Z,92.71
2019-05-21T03:51:40.019Z,93.26
2019-05-21T03:54:06.347Z,92.88
2019-05-21T03:56:32.605Z,92.04
2019-05-21T03:58:58.865Z,91.18
2019-05-21T04:01:25.114Z,90.17
2019-05-21T04:03:52.568Z,88.91
2019-05-21T04:06:18.877Z,88.26
2019-05-21T04:08:45.108Z,87.65
2019-05-21T04:11:11.363Z,86.03
2019-05-21T04:13:37.589Z,84.79
2019-05-21T04:16:08.446Z,83.13
2019-05-21T04:18:39.188Z,82.94
2019-05-21T04:21:05.453Z,83.00
2019-05-21T04:23:31.719Z,82.73
2019-05-21T04:25:57.962Z,82.49
2019-05-21T04:28:24.215Z,81.27
2019-05-21T04:30:50.494Z,81.74
2019-05-21T04:33:17.526Z,81.30
2019-05-21T04:35:43.760Z,81.06
2019-05-21T04:38:10.006Z,80.79
2019-05-21T04:40:36.242Z,80.25
2019-05-21T04:43:02.884Z,80.61
2019-05-21T04:45:29.268Z,79.84
2019-05-21T04:47:55.899Z,78.53
2019-05-21T04:50:22.338Z,76.78
2019-05-21T04:52:48.938Z,76.45
2019-05-21T04:55:15.190Z,75.86
2019-05-21T04:57:41.443Z,74.38
2019-05-21T05:00:07.992Z,73.58
2019-05-21T05:02:34.223Z,73.31
2019-05-21T05:05:00.671Z,72.24
2019-05-21T05:07:28.870Z,70.57
2019-05-21T05:09:55.065Z,70.45
2019-05-21T05:12:21.308Z,69.89
2019-05-21T05:14:47.564Z,69.91
2019-05-21T05:17:13.806Z,68.85
2019-05-21T05:19:40.503Z,68.32
2019-05-21T05:22:06.732Z,68.32
2019-05-21T05:24:32.989Z,67.53
2019-05-21T05:26:59.261Z,65.70
2019-05-21T05:29:25.523Z,66.46
2019-05-21T05:31:51.775Z,65.39
2019-05-21T05:34:18.038Z,64.09
2019-05-21T05:36:44.294Z,64.36
2019-05-21T05:39:10.559Z,63.60
2019-05-21T05:41:36.819Z,62.70
2019-05-21T05:44:03.387Z,63.05
2019-05-21T05:46:29.639Z,62.57
2019-05-21T05:48:57.691Z,62.84
2019-05-21T05:51:23.966Z,61.53
2019-05-21T05:53:56.429Z,62.27
2019-05-21T05:56:22.692Z,61.89
2019-05-21T05:58:49.340Z,60.51
2019-05-21T06:01:15.724Z,61.04
2019-05-21T06:03:41.955Z,60.72
2019-05-21T06:06:08.202Z,60.39
2019-05-21T06:08:34.468Z,59.43
2019-05-21T06:11:00.757Z,58.50
2019-05-21T06:13:27.004Z,58.53
2019-05-21T06:15:53.260Z,57.18
2019-05-21T06:18:19.489Z,56.67
2019-05-21T06:20:45.742Z,57.39
2019-05-21T06:23:11.984Z,56.76
2019-05-21T06:25:38.250Z,56.53
2019-05-21T06:28:04.489Z,55.84
2019-05-21T06:30:30.742Z,55.93
2019-05-21T06:32:56.981Z,53.54
2019-05-21T06:35:23.252Z,53.82
2019-05-21T06:37:49.486Z,54.24
2019-05-21T06:40:15.935Z,53.19
2019-05-21T06:42:42.204Z,52.97
2019-05-21T06:45:09.051Z,53.56
2019-05-21T06:47:35.305Z,55.37
2019-05-21T06:50:01.652Z,55.75
2019-05-21T06:52:27.888Z,55.71
2019-05-21T06:54:54.115Z,54.62
2019-05-21T06:57:20.374Z,55.22
2019-05-21T06:59:46.622Z,55.27
2019-05-21T07:02:12.910Z,52.79
2019-05-21T07:04:39.385Z,54.03
2019-05-21T07:07:05.697Z,53.19
2019-05-21T07:09:31.946Z,51.89
2019-05-21T07:11:58.192Z,51.38
2019-05-21T07:14:24.426Z,50.87
2019-05-21T07:16:50.707Z,50.27
2019-05-21T07:19:16.942Z,49.34
2019-05-21T07:21:43.191Z,50.31
2019-05-21T07:24:09.440Z,50.20
2019-05-21T07:26:35.694Z,50.84
2019-05-21T07:29:01.984Z,50.21
2019-05-21T07:31:28.221Z,49.70
2019-05-21T07:33:54.478Z,48.80
2019-05-21T07:36:20.725Z,47.68
2019-05-21T07:38:53.437Z,47.69
2019-05-21T07:41:15.142Z,47.98
2019-05-21T07:43:41.390Z,46.43
2019-05-21T07:46:07.634Z,45.18
2019-05-21T07:48:33.888Z,46.04
2019-05-21T07:51:00.227Z,44.14
2019-05-21T07:53:26.528Z,44.02
2019-05-21T07:55:52.769Z,44.78
2019-05-21T07:58:19.031Z,44.91
2019-05-21T08:00:45.262Z,43.41
2019-05-21T08:03:11.560Z,43.11
2019-05-21T08:05:37.803Z,43.27
2019-05-21T08:08:04.045Z,42.24
2019-05-21T08:10:30.320Z,42.51
2019-05-21T08:12:56.593Z,43.09
2019-05-21T08:15:22.844Z,42.74
2019-05-21T08:17:49.099Z,42.83
2019-05-21T08:20:15.961Z,41.93
2019-05-21T08:22:42.229Z,43.89
2019-05-21T08:25:08.596Z,44.21
2019-05-21T08:27:34.855Z,43.42
2019-05-21T08:30:01.088Z,44.44
2019-05-21T08:32:27.394Z,45.57
2019-05-21T08:34:53.652Z,44.65
2019-05-21T08:37:19.895Z,43.85
2019-05-21T08:39:46.161Z,44.29
2019-05-21T08:42:12.540Z,44.15
2019-05-21T08:44:38.909Z,45.81
2019-05-21T08:47:05.171Z,46.29
2019-05-21T08:49:31.463Z,46.71
2019-05-21T08:51:57.715Z,47.29
2019-05-21T08:54:42.476Z,47.04
2019-05-21T08:57:08.770Z,47.18
2019-05-21T08:59:35.017Z,47.22
2019-05-21T09:02:01.282Z,46.41
2019-05-21T09:04:45.448Z,47.23
2019-05-21T09:06:55.742Z,46.02
2019-05-21T09:09:22.011Z,46.30
2019-05-21T09:11:48.236Z,46.17
2019-05-21T09:14:14.481Z,47.59
2019-05-21T09:16:40.729Z,47.32
2019-05-21T09:19:06.987Z,46.59
2019-05-21T09:21:33.309Z,45.43
2019-05-21T09:23:59.615Z,44.75
2019-05-21T09:26:25.855Z,43.98
2019-05-21T09:28:52.114Z,43.78
2019-05-21T09:31:18.372Z,44.17
2019-05-21T09:33:44.623Z,43.73
2019-05-21T09:36:10.873Z,44.56
2019-05-21T09:38:37.119Z,43.93
2019-05-21T09:41:03.416Z,43.17
2019-05-21T09:43:29.659Z,42.45
2019-05-21T09:45:55.910Z,42.72
2019-05-21T09:48:22.156Z,42.16
2019-05-21T09:50:48.479Z,43.46
2019-05-21T09:53:14.716Z,43.55
2019-05-21T09:55:40.971Z,42.72
2019-05-21T09:58:11.520Z,42.71
2019-05-21T10:00:48.472Z,42.37
2019-05-21T10:03:22.064Z,41.43
2019-05-21T10:05:48.342Z,42.12
2019-05-21T10:08:14.579Z,42.47
2019-05-21T10:10:40.814Z,42.96
2019-05-21T10:13:07.068Z,43.13
2019-05-21T10:15:33.301Z,43.42
2019-05-21T10:17:59.549Z,43.36
2019-05-21T10:20:25.821Z,42.20
2019-05-21T10:22:52.076Z,41.76
2019-05-21T10:25:18.320Z,42.44
2019-05-21T10:27:44.645Z,43.19
2019-05-21T10:30:11.347Z,43.76
2019-05-21T10:32:37.600Z,44.72
2019-05-21T10:35:04.894Z,45.58
2019-05-21T10:37:31.546Z,45.50
2019-05-21T10:39:57.882Z,45.84
2019-05-21T10:42:24.158Z,47.52
2019-05-21T10:44:50.544Z,47.35
2019-05-21T10:47:16.781Z,48.08
2019-05-21T10:49:43.024Z,48.38
2019-05-21T10:52:09.261Z,47.63
2019-05-21T10:54:35.493Z,47.84
2019-05-21T10:57:01.852Z,48.57
2019-05-21T10:59:28.172Z,46.82
2019-05-21T11:01:58.755Z,47.24
2019-05-21T11:04:42.101Z,47.40
2019-05-21T11:07:09.750Z,48.66
2019-05-21T11:09:36.032Z,47.59
2019-05-21T11:12:02.287Z,46.67
2019-05-21T11:14:28.659Z,45.67
2019-05-21T11:16:55.347Z,47.00
2019-05-21T11:19:21.711Z,47.65
2019-05-21T11:21:47.948Z,47.31
2019-05-21T11:24:14.423Z,46.95
2019-05-21T11:26:40.758Z,46.75
2019-05-21T11:29:06.990Z,47.59
2019-05-21T11:31:33.325Z,47.05
2019-05-21T11:33:59.564Z,48.07
2019-05-21T11:36:25.825Z,47.81
2019-05-21T11:38:52.057Z,46.71
2019-05-21T11:41:18.301Z,47.88
2019-05-21T11:43:44.559Z,48.73
2019-05-21T11:46:10.839Z,48.64
2019-05-21T11:48:37.074Z,48.71
2019-05-21T11:51:03.523Z,49.04
2019-05-21T11:53:31.946Z,49.41
2019-05-21T11:55:57.945Z,49.92
2019-05-21T11:58:24.185Z,49.81
2019-05-21T12:00:50.577Z,49.31
2019-05-21T12:03:16.830Z,48.00
2019-05-21T12:05:43.102Z,47.24
2019-05-21T12:08:09.317Z,47.03
2019-05-21T12:10:35.612Z,46.32
2019-05-21T12:13:01.873Z,47.13
2019-05-21T12:15:28.235Z,47.53
2019-05-21T12:17:54.573Z,46.70
2019-05-21T12:20:35.194Z,46.64
2019-05-21T12:22:49.120Z,46.67
2019-05-21T12:25:15.468Z,46.31
2019-05-21T12:27:41.721Z,47.00
2019-05-21T12:30:08.375Z,47.80
2019-05-21T12:32:34.612Z,47.99
2019-05-21T12:35:00.845Z,48.41
2019-05-21T12:37:27.097Z,47.98
2019-05-21T12:39:53.337Z,47.28
2019-05-21T12:42:19.590Z,47.05
2019-05-21T12:44:45.862Z,48.19
2019-05-21T12:47:12.220Z,49.49
2019-05-21T12:49:38.467Z,49.42
2019-05-21T12:52:04.709Z,48.75
2019-05-21T12:54:30.961Z,48.37
2019-05-21T12:56:57.727Z,48.91
2019-05-21T12:59:23.969Z,50.26
2019-05-21T13:01:50.241Z,51.20
2019-05-21T13:04:16.494Z,51.64
2019-05-21T13:06:42.837Z,51.89
2019-05-21T13:09:09.299Z,52.50
2019-05-21T13:11:35.552Z,52.01
2019-05-21T13:14:01.832Z,52.74
2019-05-21T13:16:28.105Z,52.55
2019-05-21T13:18:54.398Z,53.11
2019-05-21T13:21:20.635Z,52.99
2019-05-21T13:23:46.897Z,52.80
2019-05-21T13:26:13.137Z,53.98
2019-05-21T13:28:39.491Z,53.63
2019-05-21T13:31:05.937Z,54.44
2019-05-21T13:33:32.173Z,54.38
2019-05-21T13:35:58.423Z,54.26
2019-05-21T13:38:24.686Z,53.99
2019-05-21T13:40:51.728Z,54.80
2019-05-21T13:43:21.129Z,54.12
2019-05-21T13:45:46.234Z,54.15
2019-05-21T13:48:12.481Z,54.79
2019-05-21T13:50:38.823Z,54.33
2019-05-21T13:53:05.065Z,53.40
2019-05-21T13:55:33.925Z,53.19
2019-05-21T13:57:59.793Z,53.67
2019-05-21T14:00:31.133Z,53.80
2019-05-21T14:02:57.585Z,52.95
2019-05-21T14:05:25.259Z,52.11
2019-05-21T14:07:51.490Z,53.23
2019-05-21T14:10:20.709Z,53.05
2019-05-21T14:12:45.897Z,52.51
2019-05-21T14:15:12.255Z,54.00
2019-05-21T14:17:38.489Z,53.36
2019-05-21T14:20:06.148Z,53.50
2019-05-21T14:22:36.255Z,54.25
2019-05-21T14:25:00.523Z,54.00
2019-05-21T14:27:43.194Z,54.69
2019-05-21T14:29:54.922Z,54.32
2019-05-21T14:32:21.232Z,54.49
2019-05-21T14:35:00.718Z,54.64
2019-05-21T14:37:15.706Z,54.78
2019-05-21T14:39:41.938Z,55.12
2019-05-21T14:42:08.168Z,55.29
2019-05-21T14:44:34.431Z,55.29
2019-05-21T14:47:00.668Z,55.41
2019-05-21T14:49:26.899Z,55.52
2019-05-21T14:51:53.144Z,55.99
2019-05-21T14:54:26.639Z,56.07
2019-05-21T14:56:48.078Z,56.17
2019-05-21T14:59:14.492Z,57.04
2019-05-21T15:01:40.737Z,56.64
2019-05-21T15:04:07.030Z,57.19
2019-05-21T15:06:33.349Z,57.46
2019-05-21T15:08:59.593Z,57.89
2019-05-21T15:11:25.834Z,57.61
2019-05-21T15:13:52.065Z,58.21
2019-05-21T15:16:18.535Z,57.71
2019-05-21T15:18:44.796Z,58.14
2019-05-21T15:21:18.421Z,58.84
2019-05-21T15:23:45.714Z,58.77
2019-05-21T15:26:12.601Z,59.30
2019-05-21T15:28:38.817Z,58.89
2019-05-21T15:31:05.070Z,59.26
2019-05-21T15:33:31.304Z,58.55
2019-05-21T15:35:57.568Z,59.06
2019-05-21T15:38:23.803Z,59.13
2019-05-21T15:41:08.384Z,59.44
2019-05-21T15:43:18.168Z,59.52
2019-05-21T15:45:44.503Z,59.88
2019-05-21T15:48:10.749Z,60.01
2019-05-21T15:50:38.192Z,59.67
2019-05-21T15:53:04.451Z,59.80
2019-05-21T15:55:32.206Z,59.80
2019-05-21T15:57:58.451Z,59.53
2019-05-21T16:00:24.995Z,59.60
2019-05-21T16:02:51.270Z,60.02
2019-05-21T16:05:17.544Z,59.66
2019-05-21T16:07:43.827Z,59.36
2019-05-21T16:10:10.400Z,59.72
2019-05-21T16:12:36.982Z,59.86
2019-05-21T16:15:06.559Z,59.83
2019-05-21T16:17:32.825Z,60.25
2019-05-21T16:19:59.077Z,60.31
2019-05-21T16:22:25.330Z,60.16
2019-05-21T16:24:53.378Z,60.47
2019-05-21T16:27:19.653Z,60.93
2019-05-21T16:29:45.911Z,60.91
2019-05-21T16:32:12.259Z,60.97
2019-05-21T16:34:38.528Z,61.45
2019-05-21T16:37:04.821Z,62.01
2019-05-21T16:39:31.676Z,61.90
2019-05-21T16:41:57.928Z,61.94
2019-05-21T16:44:24.193Z,61.64
2019-05-21T16:46:50.440Z,61.58
2019-05-21T16:49:16.712Z,61.73
2019-05-21T16:51:43.638Z,61.78
2019-05-21T16:54:10.137Z,62.32
2019-05-21T16:56:36.383Z,61.83
2019-05-21T16:59:02.943Z,62.32
2019-05-21T17:01:29.852Z,61.96
2019-05-21T17:03:59.891Z,61.75
2019-05-21T17:06:24.316Z,62.22
2019-05-21T17:08:50.610Z,62.21
2019-05-21T17:11:16.864Z,62.41
2019-05-21T17:13:43.189Z,62.59
2019-05-21T17:16:09.439Z,63.09
2019-05-21T17:18:35.699Z,62.83
2019-05-21T17:21:01.962Z,63.02
2019-05-21T17:23:28.223Z,63.10
2019-05-21T17:25:54.496Z,63.13
2019-05-21T17:28:20.735Z,62.97
2019-05-21T17:30:47.002Z,63.73
2019-05-21T17:33:13.276Z,63.85
2019-05-21T17:35:39.540Z,63.67
2019-05-21T17:38:05.786Z,62.99
2019-05-21T17:40:32.061Z,62.78
2019-05-21T17:42:58.307Z,62.87
2019-05-21T17:45:24.670Z,63.05
2019-05-21T17:47:51.117Z,63.18
2019-05-21T17:50:17.693Z,63.65
2019-05-21T17:52:43.950Z,64.19
2019-05-21T17:55:10.627Z,64.03
2019-05-21T17:57:37.227Z,63.68
2019-05-21T18:00:08.122Z,64.01
2019-05-21T18:02:34.378Z,64.57
2019-05-21T18:05:00.757Z,64.83
2019-05-21T18:07:27.933Z,65.22
2019-05-21T18:09:54.388Z,65.67
2019-05-21T18:12:31.525Z,65.42
2019-05-21T18:14:49.516Z,65.84
2019-05-21T18:17:17.787Z,66.18
2019-05-21T18:19:44.843Z,66.11
2019-05-21T18:22:12.738Z,66.39
2019-05-21T18:24:38.965Z,66.74
2019-05-21T18:27:05.243Z,66.71
2019-05-21T18:29:31.511Z,67.69
2019-05-21T18:31:57.747Z,67.63
2019-05-21T18:34:24.296Z,67.25
2019-05-21T18:36:50.665Z,67.50
2019-05-21T18:39:17.849Z,67.82
2019-05-21T18:41:44.098Z,68.13
2019-05-21T18:44:10.347Z,68.41
2019-05-21T18:46:36.609Z,68.63
2019-05-21T18:49:03.193Z,68.45
2019-05-21T18:51:29.443Z,68.45
2019-05-21T18:53:55.707Z,69.39
2019-05-21T18:56:21.951Z,69.39
2019-05-21T18:58:48.266Z,69.81
2019-05-21T19:01:15.008Z,69.59
2019-05-21T19:03:41.371Z,69.84
2019-05-21T19:06:07.726Z,70.61
2019-05-21T19:08:34.027Z,70.96
2019-05-21T19:11:00.284Z,70.47
2019-05-21T19:13:29.781Z,70.50
2019-05-21T19:15:56.105Z,70.37
2019-05-21T19:18:22.350Z,70.44
2019-05-21T19:20:50.058Z,70.33
2019-05-21T19:23:16.602Z,71.45
2019-05-21T19:25:42.832Z,72.38
2019-05-21T19:28:09.082Z,72.58
2019-05-21T19:30:35.934Z,72.33
2019-05-21T19:33:02.203Z,72.30
2019-05-21T19:35:28.618Z,71.70
2019-05-21T19:37:54.911Z,71.57
2019-05-21T19:40:21.565Z,72.41
2019-05-21T19:42:54.998Z,74.12
2019-05-21T19:45:16.177Z,75.81
2019-05-21T19:47:42.449Z,75.81
2019-05-21T19:50:09.152Z,75.34
2019-05-21T19:52:35.400Z,75.51
2019-05-21T19:55:02.061Z,75.23
2019-05-21T19:57:30.000Z,76.69
2019-05-21T19:59:56.251Z,77.67
2019-05-21T20:02:22.894Z,78.24
2019-05-21T20:04:49.169Z,79.42
2019-05-21T20:07:16.913Z,79.46
2019-05-21T20:09:45.039Z,78.51
2019-05-21T20:12:12.071Z,77.60
2019-05-21T20:14:38.540Z,77.70
2019-05-21T20:17:04.935Z,77.98
2019-05-21T20:19:31.654Z,78.73
2019-05-21T20:21:57.921Z,79.05
2019-05-21T20:24:24.450Z,79.08
2019-05-21T20:26:50.855Z,79.46
2019-05-21T20:29:17.099Z,79.38
2019-05-21T20:31:44.156Z,78.75
2019-05-21T20:34:10.845Z,79.59
2019-05-21T20:36:40.723Z,80.82
2019-05-21T20:39:08.714Z,80.50
2019-05-21T20:41:36.374Z,79.84
2019-05-21T20:44:03.724Z,79.96
2019-05-21T20:46:30.684Z,79.23
2019-05-21T20:48:58.139Z,80.06
2019-05-21T20:51:24.412Z,80.42
2019-05-21T20:53:50.658Z,80.97
2019-05-21T20:56:17.839Z,80.06
2019-05-21T20:58:44.857Z,80.23
2019-05-21T21:01:11.207Z,81.48
2019-05-21T21:03:37.434Z,82.19
2019-05-21T21:06:04.891Z,82.16
2019-05-21T21:08:32.942Z,83.10
2019-05-21T21:10:59.678Z,82.65
2019-05-21T21:13:28.141Z,82.34
2019-05-21T21:15:54.391Z,83.16
2019-05-21T21:18:20.830Z,82.92
2019-05-21T21:20:47.375Z,84.37
2019-05-21T21:23:15.925Z,83.39
2019-05-21T21:25:42.589Z,85.18
2019-05-21T21:28:08.939Z,85.17
2019-05-21T21:30:35.786Z,84.90
2019-05-21T21:33:03.853Z,85.73
2019-05-21T21:35:30.818Z,84.90
2019-05-21T21:37:58.459Z,86.06
2019-05-21T21:40:24.955Z,85.36
2019-05-21T21:42:51.886Z,83.79
2019-05-21T21:45:18.342Z,85.29
2019-05-21T21:47:44.724Z,85.56
2019-05-21T21:50:11.785Z,86.55
2019-05-21T21:52:39.040Z,87.21
2019-05-21T21:55:06.178Z,87.83
2019-05-21T21:57:32.411Z,86.77
2019-05-21T21:59:59.272Z,88.10
2019-05-21T22:02:30.211Z,86.22
2019-05-21T22:04:56.788Z,87.87
2019-05-21T22:07:23.007Z,88.03
2019-05-21T22:09:49.378Z,88.05
2019-05-21T22:12:17.013Z,88.09
2019-05-21T22:14:51.681Z,87.97
2019-05-21T22:17:13.332Z,88.80
2019-05-21T22:19:39.684Z,88.75
2019-05-21T22:22:06.707Z,88.12
2019-05-21T22:24:33.310Z,89.49
2019-05-21T22:26:59.552Z,88.90
2019-05-21T22:29:26.108Z,86.90
2019-05-21T22:31:52.458Z,88.42
2019-05-21T22:34:18.676Z,88.77
2019-05-21T22:36:44.917Z,88.80
2019-05-21T22:39:19.328Z,89.26
2019-05-21T22:41:45.591Z,89.87
2019-05-21T22:44:12.598Z,90.96
2019-05-21T22:46:38.851Z,87.88
2019-05-21T22:49:05.086Z,88.17
2019-05-21T22:51:31.343Z,88.33
2019-05-21T22:53:57.578Z,89.14
2019-05-21T22:56:23.830Z,89.72
2019-05-21T22:58:50.063Z,88.59
2019-05-21T23:01:16.631Z,89.39
2019-05-21T23:03:42.956Z,90.25
2019-05-21T23:06:09.409Z,89.47
2019-05-21T23:08:36.064Z,89.85
2019-05-21T23:11:02.311Z,89.30
2019-05-21T23:13:28.551Z,89.26
2019-05-21T23:15:56.003Z,89.23
2019-05-21T23:18:22.245Z,89.91
2019-05-21T23:20:48.987Z,90.57
2019-05-21T23:23:15.322Z,91.45
2019-05-21T23:25:42.960Z,91.12
2019-05-21T23:28:09.502Z,90.94
2019-05-21T23:30:35.731Z,91.31
2019-05-21T23:33:03.823Z,91.18
2019-05-21T23:35:30.022Z,91.77
2019-05-21T23:37:56.272Z,92.71
2019-05-21T23:40:23.798Z,91.36
2019-05-21T23:42:50.035Z,91.66
2019-05-21T23:45:16.559Z,91.84
2019-05-21T23:47:42.906Z,90.85
2019-05-21T23:50:10.551Z,90.95
2019-05-21T23:52:37.410Z,91.69
2019-05-21T23:55:07.250Z,90.54
2019-05-21T23:57:36.222Z,90.90
